Time;durP1;ratioP1;P1;durP2;ratioP2;P2;SDS_P1;SDS_P2;PMS_P1;PMS_P2;Temp;Humidity;BMP_temperature;BMP_pressure;BME280_temperature;BME280_humidity;BME280_pressure;Samples;Min_cycle;Max_cycle;Signal;HPM_P1;HPM_P2
2022/01/09 00:02:16;;;;;;;28.40;21.50;;;4.00;99.90;;;;;;2151685;66;20257;-71
2022/01/09 00:04:58;;;;;;;26.83;18.10;;;4.00;99.90;;;;;;2144409;66;20169;-73
2022/01/09 00:07:41;;;;;;;28.67;22.08;;;4.00;99.90;;;;;;2146940;66;20182;-72
2022/01/09 00:10:28;;;;;;;24.65;18.33;;;4.00;99.90;;;;;;2137847;66;20735;-72
2022/01/09 00:13:14;;;;;;;32.67;21.92;;;4.00;99.90;;;;;;2138776;66;20194;-71
2022/01/09 00:15:59;;;;;;;23.88;16.98;;;4.00;99.90;;;;;;2142893;66;20753;-71
2022/01/09 00:18:41;;;;;;;30.13;19.65;;;4.00;99.90;;;;;;2151373;65;20174;-72
2022/01/09 00:21:24;;;;;;;26.83;19.55;;;4.00;99.90;;;;;;2159595;66;20648;-73
2022/01/09 00:24:09;;;;;;;24.38;19.00;;;4.00;99.90;;;;;;2168914;65;20168;-72
2022/01/09 00:26:52;;;;;;;31.02;22.88;;;4.00;99.90;;;;;;2174281;65;20555;-71
2022/01/09 00:29:35;;;;;;;26.92;19.80;;;4.00;99.90;;;;;;2166596;65;20323;-72
2022/01/09 00:32:20;;;;;;;27.00;19.60;;;4.00;99.90;;;;;;2138429;66;20295;-71
2022/01/09 00:35:02;;;;;;;27.02;19.45;;;4.00;99.90;;;;;;2145993;66;21231;-72
2022/01/09 00:37:45;;;;;;;24.85;19.40;;;4.00;99.90;;;;;;2132270;67;20292;-72
2022/01/09 00:40:30;;;;;;;30.10;20.02;;;4.00;99.90;;;;;;2127294;67;20235;-69
2022/01/09 00:43:12;;;;;;;22.33;17.52;;;4.00;99.90;;;;;;2132590;66;20784;-71
2022/01/09 00:45:54;;;;;;;24.48;18.50;;;4.00;99.90;;;;;;2126719;67;20410;-71
2022/01/09 00:48:36;;;;;;;31.75;21.42;;;4.00;99.90;;;;;;2133730;67;20296;-70
2022/01/09 00:51:18;;;;;;;31.48;21.98;;;4.00;99.90;;;;;;2145937;66;20352;-70
2022/01/09 00:54:00;;;;;;;24.67;18.42;;;4.00;99.90;;;;;;2156076;66;20322;-70
2022/01/09 00:56:42;;;;;;;25.58;18.13;;;4.00;99.90;;;;;;2141889;66;20220;-71
2022/01/09 00:59:24;;;;;;;26.77;18.40;;;4.00;99.90;;;;;;2138237;67;20390;-72
2022/01/09 01:02:06;;;;;;;27.83;19.90;;;4.00;99.90;;;;;;2142004;66;20322;-71
2022/01/09 01:04:51;;;;;;;25.30;18.55;;;4.00;99.90;;;;;;2140928;66;20163;-71
2022/01/09 01:07:40;;;;;;;28.30;19.58;;;4.00;99.90;;;;;;2134298;67;20870;-72
2022/01/09 01:10:21;;;;;;;26.40;19.73;;;4.00;99.90;;;;;;2128424;67;20790;-72
2022/01/09 01:13:04;;;;;;;26.25;19.10;;;4.00;99.90;;;;;;2145773;66;20170;-70
2022/01/09 01:15:47;;;;;;;28.38;20.23;;;4.20;99.90;;;;;;2153774;66;20266;-71
2022/01/09 01:18:31;;;;;;;31.73;23.42;;;4.00;99.90;;;;;;2138722;66;20234;-72
2022/01/09 01:21:13;;;;;;;33.38;22.17;;;4.00;99.90;;;;;;2150363;66;20422;-71
2022/01/09 01:23:57;;;;;;;32.45;22.15;;;4.00;99.90;;;;;;2139646;66;20262;-72
2022/01/09 01:26:42;;;;;;;34.42;22.70;;;4.00;99.90;;;;;;2154744;66;20252;-71
2022/01/09 01:29:26;;;;;;;29.98;20.88;;;4.00;99.90;;;;;;2141653;66;20250;-71
2022/01/09 01:32:10;;;;;;;29.92;21.52;;;4.10;99.90;;;;;;2145474;66;20246;-70
2022/01/09 01:34:53;;;;;;;33.38;22.33;;;4.10;99.90;;;;;;2144079;66;20400;-71
2022/01/09 01:37:38;;;;;;;42.80;28.23;;;4.10;99.90;;;;;;2146730;66;20242;-70
2022/01/09 01:40:23;;;;;;;35.30;23.52;;;4.10;99.90;;;;;;2154083;66;20169;-72
2022/01/09 01:43:07;;;;;;;35.55;22.88;;;4.10;99.90;;;;;;2167719;65;20247;-72
2022/01/09 01:45:50;;;;;;;44.70;25.85;;;4.10;99.90;;;;;;2168070;65;20188;-71
2022/01/09 01:48:32;;;;;;;41.40;27.42;;;4.10;99.90;;;;;;2160600;66;20318;-71
2022/01/09 01:51:14;;;;;;;32.75;22.60;;;4.10;99.90;;;;;;2159710;66;20208;-72
2022/01/09 01:53:57;;;;;;;45.30;27.73;;;4.10;99.90;;;;;;2139285;66;20670;-70
2022/01/09 01:56:39;;;;;;;36.72;23.80;;;4.10;99.90;;;;;;2147033;66;20197;-71
2022/01/09 01:59:21;;;;;;;43.35;27.83;;;4.10;99.90;;;;;;2131996;67;20797;-71
2022/01/09 02:02:04;;;;;;;55.85;33.17;;;4.10;99.90;;;;;;2133303;66;20727;-71
2022/01/09 02:04:46;;;;;;;73.10;36.47;;;4.10;99.90;;;;;;2136122;66;20311;-70
2022/01/09 02:07:29;;;;;;;43.20;29.60;;;4.10;99.90;;;;;;2147007;66;20480;-70
2022/01/09 02:10:14;;;;;;;38.47;27.75;;;4.10;99.90;;;;;;2153710;66;20246;-70
2022/01/09 02:12:57;;;;;;;53.08;31.67;;;4.20;99.90;;;;;;2169684;65;20187;-70
2022/01/09 02:15:45;;;;;;;40.92;26.33;;;4.50;99.90;;;;;;2183381;65;20238;-70
2022/01/09 02:18:28;;;;;;;46.92;27.83;;;4.20;99.90;;;;;;2180449;65;20204;-71
2022/01/09 02:21:12;;;;;;;;;;;4.20;99.90;;;;;;2184320;65;20328;-70
2022/01/09 02:23:54;;;;;;;40.92;25.85;;;4.20;99.90;;;;;;2178824;65;20537;-71
2022/01/09 02:26:37;;;;;;;39.25;24.38;;;4.20;99.90;;;;;;2146642;66;20373;-72
2022/01/09 02:29:18;;;;;;;51.58;27.98;;;4.20;99.90;;;;;;2153514;66;20242;-72
2022/01/09 02:32:00;;;;;;;43.90;25.08;;;4.20;99.90;;;;;;2157719;66;20239;-71
2022/01/09 02:34:47;;;;;;;48.97;27.88;;;4.20;99.90;;;;;;2159177;66;20192;-69
2022/01/09 02:37:28;;;;;;;52.35;29.40;;;4.20;99.90;;;;;;2141898;66;20771;-70
2022/01/09 02:40:11;;;;;;;37.72;24.05;;;4.20;99.90;;;;;;2142234;66;20220;-70
2022/01/09 02:42:54;;;;;;;56.80;28.10;;;4.30;99.90;;;;;;2138773;66;20311;-70
2022/01/09 02:45:35;;;;;;;48.83;26.42;;;4.30;99.90;;;;;;2154483;66;20799;-70
2022/01/09 02:48:18;;;;;;;44.03;22.45;;;4.30;99.90;;;;;;2154626;66;20481;-70
2022/01/09 02:51:11;;;;;;;29.50;15.57;;;4.30;99.90;;;;;;2161744;66;20404;-70
2022/01/09 02:54:12;;;;;;;25.92;13.30;;;4.40;99.90;;;;;;2160312;66;20294;-71
2022/01/09 02:56:56;;;;;;;21.35;13.10;;;4.50;99.90;;;;;;2152240;66;20208;-70
2022/01/09 02:59:38;;;;;;;24.60;12.98;;;4.50;99.90;;;;;;2126264;67;20185;-69
2022/01/09 03:02:23;;;;;;;30.10;15.63;;;4.70;99.90;;;;;;2140342;66;20299;-70
2022/01/09 03:05:04;;;;;;;21.15;10.07;;;4.80;99.90;;;;;;2156841;66;20177;-69
2022/01/09 03:07:46;;;;;;;32.88;13.65;;;4.80;99.90;;;;;;2153464;66;20238;-70
2022/01/09 03:10:27;;;;;;;30.88;12.25;;;4.90;99.90;;;;;;2130096;67;20234;-69
2022/01/09 03:13:09;;;;;;;25.17;10.55;;;4.90;99.90;;;;;;2137844;66;20435;-70
2022/01/09 03:15:54;;;;;;;17.15;9.45;;;4.90;99.90;;;;;;2147859;66;20222;-69
2022/01/09 03:18:36;;;;;;;21.73;9.45;;;5.00;99.90;;;;;;2135859;67;20349;-69
2022/01/09 03:21:18;;;;;;;24.77;12.63;;;5.00;99.90;;;;;;2137230;67;20182;-71
2022/01/09 03:23:59;;;;;;;25.35;11.45;;;5.00;99.90;;;;;;2131234;67;20171;-70
2022/01/09 03:26:43;;;;;;;33.45;12.30;;;5.00;99.90;;;;;;2112507;67;20576;-70
2022/01/09 03:29:24;;;;;;;29.48;13.10;;;5.00;99.90;;;;;;2117378;67;20216;-70
2022/01/09 03:32:09;;;;;;;24.30;10.90;;;5.20;99.90;;;;;;2123978;67;20261;-69
2022/01/09 03:34:50;;;;;;;30.00;11.13;;;5.10;99.90;;;;;;2109717;67;20197;-70
2022/01/09 03:37:33;;;;;;;22.48;9.88;;;5.10;99.90;;;;;;2132484;66;20258;-70
2022/01/09 03:40:20;;;;;;;34.13;11.13;;;5.10;99.90;;;;;;2160449;66;20488;-69
2022/01/09 03:43:02;;;;;;;37.17;9.75;;;5.20;99.90;;;;;;2145832;66;20381;-69
2022/01/09 03:45:43;;;;;;;35.55;8.68;;;5.20;99.90;;;;;;2160802;66;20256;-69
2022/01/09 03:48:25;;;;;;;33.03;9.23;;;5.20;99.90;;;;;;2159244;66;20349;-70
2022/01/09 03:51:07;;;;;;;38.45;9.65;;;5.30;99.90;;;;;;2165743;66;20372;-69
2022/01/09 03:53:51;;;;;;;32.72;9.02;;;5.30;99.90;;;;;;2152687;66;20357;-70
2022/01/09 03:56:35;;;;;;;31.15;8.73;;;5.30;99.90;;;;;;2153272;66;20307;-69
2022/01/09 03:59:18;;;;;;;33.95;8.02;;;5.50;99.90;;;;;;2153449;66;20362;-69
2022/01/09 04:02:01;;;;;;;35.20;8.02;;;5.30;99.90;;;;;;2153014;66;20244;-71
2022/01/09 04:04:43;;;;;;;38.92;8.10;;;5.40;99.90;;;;;;2131571;67;20231;-70
2022/01/09 04:07:26;;;;;;;39.00;8.88;;;5.40;99.90;;;;;;2131427;67;20321;-71
2022/01/09 04:10:11;;;;;;;43.17;11.20;;;5.40;99.90;;;;;;2128537;67;20490;-71
2022/01/09 04:12:59;;;;;;;46.25;8.77;;;5.50;99.90;;;;;;2126671;67;20340;-73
2022/01/09 04:15:47;;;;;;;54.75;9.65;;;5.50;99.90;;;;;;2126115;67;20326;-71
2022/01/09 04:18:30;;;;;;;39.67;8.18;;;5.50;99.90;;;;;;2118557;67;20198;-70
2022/01/09 04:21:14;;;;;;;45.58;9.15;;;5.60;99.90;;;;;;2120876;67;20335;-72
2022/01/09 04:23:59;;;;;;;40.65;8.30;;;5.60;99.90;;;;;;2138443;66;20329;-71
2022/01/09 04:26:45;;;;;;;46.30;8.52;;;5.70;99.90;;;;;;2139707;67;20337;-72
2022/01/09 04:29:29;;;;;;;39.00;9.32;;;5.60;99.90;;;;;;2137484;67;20337;-71
2022/01/09 04:32:11;;;;;;;34.20;7.65;;;5.60;99.90;;;;;;2125221;67;20510;-72
2022/01/09 04:34:54;;;;;;;38.60;7.43;;;5.60;99.90;;;;;;2145766;66;20313;-72
2022/01/09 04:37:38;;;;;;;36.80;9.40;;;5.60;99.90;;;;;;2158556;66;21987;-73
2022/01/09 04:40:21;;;;;;;34.30;7.85;;;5.60;99.90;;;;;;2153418;66;20823;-72
2022/01/09 04:43:06;;;;;;;29.20;7.43;;;5.60;99.90;;;;;;2168408;65;20370;-73
2022/01/09 04:45:49;;;;;;;28.60;7.30;;;5.60;99.90;;;;;;2160912;66;20373;-72
2022/01/09 04:48:31;;;;;;;31.92;7.70;;;6.40;99.90;;;;;;2161483;65;20605;-72
2022/01/09 04:51:15;;;;;;;45.60;8.07;;;5.50;99.90;;;;;;2166018;65;20251;-73
2022/01/09 04:54:00;;;;;;;34.10;7.00;;;5.60;99.90;;;;;;2166876;65;20713;-73
2022/01/09 04:56:41;;;;;;;33.60;6.65;;;5.50;99.90;;;;;;2161495;65;20776;-71
2022/01/09 04:59:23;;;;;;;31.52;8.00;;;5.50;99.90;;;;;;2176510;65;20232;-73
2022/01/09 05:02:06;;;;;;;28.67;6.07;;;5.50;99.90;;;;;;2163038;66;20567;-73
2022/01/09 05:04:51;;;;;;;33.22;7.50;;;5.50;99.90;;;;;;2159211;66;20383;-71
2022/01/09 05:07:34;;;;;;;32.50;6.18;;;5.50;99.90;;;;;;2169796;65;20197;-72
2022/01/09 05:10:16;;;;;;;32.90;6.20;;;5.70;99.90;;;;;;2168478;65;20200;-71
2022/01/09 05:12:59;;;;;;;23.08;6.15;;;5.50;99.90;;;;;;2158186;66;20447;-71
2022/01/09 05:15:47;;;;;;;34.30;7.88;;;5.50;99.90;;;;;;2155341;66;20790;-73
2022/01/09 05:18:29;;;;;;;27.67;6.10;;;5.40;99.90;;;;;;2139222;66;20186;-72
2022/01/09 05:21:11;;;;;;;22.63;5.43;;;5.50;99.90;;;;;;2140523;66;20190;-71
2022/01/09 05:23:54;;;;;;;23.55;6.50;;;5.50;99.90;;;;;;2133376;67;20240;-71
2022/01/09 05:26:35;;;;;;;25.45;5.97;;;5.50;99.90;;;;;;2126464;67;20195;-71
2022/01/09 05:29:18;;;;;;;25.63;6.25;;;5.40;99.90;;;;;;2112835;67;20314;-71
2022/01/09 05:32:01;;;;;;;28.80;7.60;;;5.40;99.90;;;;;;2106174;67;20250;-72
2022/01/09 05:34:42;;;;;;;27.98;5.70;;;5.40;99.90;;;;;;2111019;67;20252;-73
2022/01/09 05:37:25;;;;;;;29.00;5.15;;;5.40;99.90;;;;;;2117861;67;20198;-73
2022/01/09 05:40:09;;;;;;;31.45;5.65;;;5.40;99.90;;;;;;2121067;67;20369;-72
2022/01/09 05:42:51;;;;;;;23.42;5.95;;;5.40;99.90;;;;;;2118603;67;20747;-73
2022/01/09 05:45:35;;;;;;;20.52;6.38;;;5.40;99.90;;;;;;2099511;68;20580;-73
2022/01/09 05:48:20;;;;;;;27.52;4.30;;;5.30;99.90;;;;;;2089958;68;20199;-73
2022/01/09 05:51:04;;;;;;;24.98;4.88;;;5.40;99.90;;;;;;2101475;67;20199;-72
2022/01/09 05:53:46;;;;;;;23.35;5.13;;;5.40;99.90;;;;;;2103977;67;20265;-72
2022/01/09 05:56:28;;;;;;;17.13;5.65;;;5.30;99.90;;;;;;2137949;66;20232;-74
2022/01/09 05:59:10;;;;;;;26.50;5.90;;;5.30;99.90;;;;;;2142006;66;20179;-74
2022/01/09 06:01:52;;;;;;;24.73;5.28;;;5.20;99.90;;;;;;2141060;66;20358;-73
2022/01/09 06:04:35;;;;;;;22.33;5.55;;;5.20;99.90;;;;;;2159352;66;20232;-73
2022/01/09 06:07:19;;;;;;;;;;;5.20;99.90;;;;;;2161075;66;20304;-74
2022/01/09 06:10:01;;;;;;;22.23;4.70;;;5.20;99.90;;;;;;2174557;65;20093;-73
2022/01/09 06:12:44;;;;;;;28.02;4.70;;;5.20;99.90;;;;;;2168485;65;20871;-74
2022/01/09 06:15:28;;;;;;;;;;;5.40;99.90;;;;;;2194333;65;20374;-73
2022/01/09 06:18:11;;;;;;;19.70;4.05;;;5.20;99.90;;;;;;2179468;65;20296;-73
2022/01/09 06:20:54;;;;;;;22.27;5.10;;;5.20;99.90;;;;;;2192424;65;20226;-73
2022/01/09 06:23:35;;;;;;;23.10;4.90;;;5.20;99.90;;;;;;2179769;65;20374;-73
2022/01/09 06:26:18;;;;;;;14.85;3.75;;;5.20;99.90;;;;;;2176307;65;20361;-72
2022/01/09 06:29:00;;;;;;;25.27;4.95;;;5.30;99.90;;;;;;2176893;65;20245;-72
2022/01/09 06:31:46;;;;;;;21.98;5.45;;;5.20;99.90;;;;;;2161239;66;20651;-73
2022/01/09 06:34:30;;;;;;;22.63;4.10;;;5.10;99.90;;;;;;2163178;66;20329;-73
2022/01/09 06:37:12;;;;;;;20.33;4.28;;;5.40;99.90;;;;;;2171429;65;20336;-73
2022/01/09 06:39:54;;;;;;;16.10;3.63;;;5.10;99.90;;;;;;2171399;65;20337;-73
2022/01/09 06:42:38;;;;;;;20.48;4.45;;;5.10;99.90;;;;;;2149141;66;20166;-74
2022/01/09 06:45:22;;;;;;;14.18;3.50;;;5.20;99.90;;;;;;2170733;65;20243;-73
2022/01/09 06:48:06;;;;;;;17.15;3.70;;;5.10;99.90;;;;;;2193401;65;20322;-73
2022/01/09 06:50:50;;;;;;;13.82;3.20;;;5.10;99.90;;;;;;2187290;65;20178;-74
2022/01/09 06:53:33;;;;;;;16.02;3.58;;;5.10;99.90;;;;;;2185346;65;20323;-73
2022/01/09 06:56:17;;;;;;;18.45;4.00;;;5.20;99.90;;;;;;2194732;65;20206;-72
2022/01/09 06:58:59;;;;;;;16.75;4.10;;;5.10;99.90;;;;;;2186809;65;20258;-73
2022/01/09 07:01:41;;;;;;;16.88;3.25;;;5.10;99.90;;;;;;2174716;65;20215;-73
2022/01/09 07:04:23;;;;;;;16.20;3.67;;;5.10;99.90;;;;;;2178646;65;20235;-73
2022/01/09 07:07:06;;;;;;;13.38;3.50;;;5.10;99.90;;;;;;2180238;65;20328;-72
2022/01/09 07:09:48;;;;;;;13.05;3.75;;;5.10;99.90;;;;;;2178306;65;20203;-73
2022/01/09 07:12:33;;;;;;;18.42;3.40;;;5.10;99.90;;;;;;2150233;66;20279;-74
2022/01/09 07:15:15;;;;;;;20.17;3.45;;;5.20;99.90;;;;;;2143062;66;20179;-72
2022/01/09 07:17:57;;;;;;;16.08;3.78;;;5.10;99.90;;;;;;2163783;66;20293;-73
2022/01/09 07:20:39;;;;;;;16.48;3.40;;;5.10;99.90;;;;;;2139789;66;20337;-74
2022/01/09 07:23:21;;;;;;;16.05;3.40;;;5.10;99.90;;;;;;2146663;66;20269;-74
2022/01/09 07:26:03;;;;;;;15.13;3.65;;;5.10;99.90;;;;;;2155213;66;20869;-73
2022/01/09 07:28:45;;;;;;;11.85;3.90;;;5.00;99.90;;;;;;2154335;66;20250;-74
2022/01/09 07:31:27;;;;;;;16.48;4.00;;;5.00;99.90;;;;;;2139881;66;20931;-73
2022/01/09 07:34:09;;;;;;;11.10;3.22;;;5.00;99.90;;;;;;2148819;66;20303;-72
2022/01/09 07:36:51;;;;;;;17.95;4.38;;;4.90;99.90;;;;;;2161216;66;20217;-74
2022/01/09 07:39:33;;;;;;;13.82;3.25;;;4.90;99.90;;;;;;2176600;65;20425;-73
2022/01/09 07:42:14;;;;;;;19.83;4.47;;;5.00;99.90;;;;;;2169200;65;20259;-73
2022/01/09 07:44:57;;;;;;;10.40;3.72;;;4.90;99.90;;;;;;2184936;65;20196;-74
2022/01/09 07:47:39;;;;;;;12.70;3.35;;;4.90;99.90;;;;;;2186827;65;20705;-74
2022/01/09 07:50:22;;;;;;;14.57;3.25;;;4.90;99.90;;;;;;2198913;65;20314;-73
2022/01/09 07:53:05;;;;;;;18.42;4.53;;;4.90;99.90;;;;;;2207038;64;20407;-74
2022/01/09 07:55:47;;;;;;;13.50;3.20;;;4.90;99.90;;;;;;2187570;65;20737;-74
2022/01/09 07:58:29;;;;;;;16.88;3.75;;;4.90;99.90;;;;;;2187176;65;20268;-73
2022/01/09 08:01:11;;;;;;;12.77;3.83;;;4.90;99.90;;;;;;2191889;65;20327;-74
2022/01/09 08:03:53;;;;;;;9.63;2.85;;;4.90;99.90;;;;;;2195080;65;20543;-74
2022/01/09 08:06:35;;;;;;;20.27;3.22;;;4.80;99.90;;;;;;2185160;65;20320;-73
2022/01/09 08:09:17;;;;;;;16.38;3.95;;;4.80;99.90;;;;;;2196827;65;20272;-75
2022/01/09 08:12:00;;;;;;;20.08;3.42;;;4.80;99.90;;;;;;2220414;64;20365;-76
2022/01/09 08:14:47;;;;;;;;;;;4.80;99.90;;;;;;2214318;64;20172;-74
2022/01/09 08:17:29;;;;;;;10.73;3.67;;;4.80;99.90;;;;;;2207257;64;20562;-74
2022/01/09 08:20:14;;;;;;;16.58;4.13;;;4.80;99.90;;;;;;2207110;64;20378;-74
2022/01/09 08:22:56;;;;;;;11.85;2.85;;;4.80;99.90;;;;;;2203609;64;20222;-74
2022/01/09 08:25:38;;;;;;;14.35;3.47;;;4.80;99.90;;;;;;2199572;65;20257;-74
2022/01/09 08:28:20;;;;;;;10.85;2.80;;;5.30;99.90;;;;;;2192269;65;20243;-73
2022/01/09 08:31:01;;;;;;;15.10;3.22;;;4.80;99.90;;;;;;2192716;65;20244;-74
2022/01/09 08:33:43;;;;;;;7.45;2.85;;;4.80;99.90;;;;;;2195213;65;20284;-74
2022/01/09 08:36:25;;;;;;;16.27;3.13;;;4.80;99.90;;;;;;2204224;64;20304;-75
2022/01/09 08:39:10;;;;;;;9.43;2.47;;;4.70;99.90;;;;;;2200821;65;20726;-75
2022/01/09 08:41:54;;;;;;;12.73;2.90;;;4.70;99.90;;;;;;2183168;65;20183;-74
2022/01/09 08:44:37;;;;;;;11.50;3.00;;;4.70;99.90;;;;;;2177643;65;20187;-75
2022/01/09 08:47:19;;;;;;;9.10;3.42;;;4.70;99.90;;;;;;2170955;65;20188;-74
2022/01/09 08:50:02;;;;;;;13.88;3.42;;;4.70;99.90;;;;;;2156548;66;20177;-74
2022/01/09 08:52:48;;;;;;;13.27;3.45;;;4.70;99.90;;;;;;2168035;65;20290;-73
2022/01/09 08:55:32;;;;;;;13.25;3.00;;;4.80;99.90;;;;;;2149653;66;20241;-74
2022/01/09 08:58:15;;;;;;;10.65;2.55;;;4.90;99.90;;;;;;2167185;65;20172;-74
2022/01/09 09:01:00;;;;;;;7.25;2.92;;;4.90;99.90;;;;;;2163290;66;20293;-73
2022/01/09 09:03:42;;;;;;;13.05;3.25;;;4.90;99.90;;;;;;2159186;66;20458;-74
2022/01/09 09:06:23;;;;;;;18.52;4.18;;;4.90;99.90;;;;;;2154158;66;20319;-73
2022/01/09 09:09:06;;;;;;;10.70;2.85;;;4.90;99.90;;;;;;2163476;66;20181;-73
2022/01/09 09:11:48;;;;;;;9.43;3.03;;;4.80;99.90;;;;;;2158529;66;20374;-75
2022/01/09 09:14:31;;;;;;;9.68;2.72;;;4.90;99.90;;;;;;2157462;66;20237;-74
2022/01/09 09:17:13;;;;;;;11.75;4.22;;;4.90;99.90;;;;;;2154668;66;20256;-77
2022/01/09 09:19:56;;;;;;;8.88;2.70;;;4.90;99.90;;;;;;2156395;66;20762;-73
2022/01/09 09:22:39;;;;;;;12.63;3.25;;;4.90;99.90;;;;;;2154674;66;20287;-74
2022/01/09 09:25:22;;;;;;;10.63;2.75;;;5.00;99.90;;;;;;2161164;66;20497;-74
2022/01/09 09:28:06;;;;;;;12.95;3.50;;;4.90;99.90;;;;;;2161671;66;20208;-74
2022/01/09 09:30:52;;;;;;;8.53;2.67;;;5.00;99.90;;;;;;2153599;66;20197;-75
2022/01/09 09:33:35;;;;;;;10.77;2.40;;;5.00;99.90;;;;;;2139193;66;20816;-75
2022/01/09 09:36:17;;;;;;;8.27;2.15;;;5.60;99.90;;;;;;2146950;66;20571;-76
2022/01/09 09:39:00;;;;;;;8.77;1.95;;;5.00;99.90;;;;;;2142405;66;20371;-73
2022/01/09 09:41:42;;;;;;;7.53;1.95;;;5.00;99.90;;;;;;2125467;67;20160;-74
2022/01/09 09:44:25;;;;;;;13.73;2.83;;;5.10;99.90;;;;;;2134036;67;20799;-74
2022/01/09 09:47:10;;;;;;;6.70;2.38;;;5.10;99.90;;;;;;2122152;67;20222;-74
2022/01/09 09:49:55;;;;;;;13.27;2.63;;;5.00;99.90;;;;;;2123907;67;20400;-75
2022/01/09 09:52:37;;;;;;;12.27;2.65;;;5.00;99.90;;;;;;2113083;67;20207;-74
2022/01/09 09:55:19;;;;;;;7.10;2.50;;;5.10;99.90;;;;;;2104636;67;20177;-75
2022/01/09 09:58:01;;;;;;;8.77;2.58;;;5.20;99.90;;;;;;2117543;67;20257;-74
2022/01/09 10:00:50;;;;;;;8.90;2.67;;;5.30;99.90;;;;;;2134035;67;20779;-76
2022/01/09 10:03:33;;;;;;;6.80;2.58;;;5.20;99.90;;;;;;2132757;67;20187;-74
2022/01/09 10:06:46;;;;;;;11.45;3.33;;;5.30;99.90;;;;;;2131997;67;20700;-75
2022/01/09 10:09:29;;;;;;;8.90;2.20;;;5.30;99.90;;;;;;2148066;66;20707;-75
2022/01/09 10:12:12;;;;;;;5.93;2.25;;;5.20;99.90;;;;;;2126904;67;20704;-75
2022/01/09 10:15:00;;;;;;;9.05;2.13;;;5.30;99.90;;;;;;2145071;66;20322;-75
2022/01/09 10:17:44;;;;;;;11.73;3.20;;;5.30;99.90;;;;;;2136735;67;20258;-76
2022/01/09 10:20:28;;;;;;;5.25;2.70;;;5.30;99.90;;;;;;2134040;66;20187;-74
2022/01/09 10:23:12;;;;;;;7.97;2.00;;;5.40;99.90;;;;;;2149155;66;20330;-74
2022/01/09 10:25:54;;;;;;;6.25;2.10;;;5.30;99.90;;;;;;2146503;66;20358;-76
2022/01/09 10:28:42;;;;;;;7.68;2.58;;;5.30;99.90;;;;;;2155347;66;20185;-75
2022/01/09 10:31:27;;;;;;;13.02;2.58;;;5.30;99.90;;;;;;2167325;65;20336;-75
2022/01/09 10:34:10;;;;;;;9.73;2.45;;;5.30;99.90;;;;;;2174171;65;20746;-74
2022/01/09 10:36:51;;;;;;;6.30;2.13;;;5.30;99.90;;;;;;2167778;65;20620;-75
2022/01/09 10:39:36;;;;;;;6.50;2.20;;;5.40;99.90;;;;;;2145004;66;20303;-74
2022/01/09 10:42:18;;;;;;;8.73;2.17;;;5.40;99.90;;;;;;2148613;66;20500;-76
2022/01/09 10:45:15;;;;;;;7.90;2.50;;;5.40;99.90;;;;;;2170897;65;20252;-74
2022/01/09 10:48:06;;;;;;;7.80;2.10;;;5.50;99.90;;;;;;2157554;65;20175;-75
2022/01/09 10:50:50;;;;;;;7.45;2.08;;;5.50;99.90;;;;;;2176914;65;20254;-75
2022/01/09 10:53:54;;;;;;;12.23;2.60;;;5.50;99.90;;;;;;2171972;65;20282;-75
2022/01/09 10:56:36;;;;;;;8.20;2.53;;;5.50;99.90;;;;;;2164011;65;20303;-74
2022/01/09 10:59:30;;;;;;;9.15;2.22;;;5.50;99.90;;;;;;2165106;65;20267;-75
2022/01/09 11:02:15;;;;;;;10.82;2.55;;;5.70;99.90;;;;;;2164869;65;20731;-74
2022/01/09 11:04:59;;;;;;;12.18;2.85;;;5.70;99.90;;;;;;2151542;66;20403;-76
2022/01/09 11:07:43;;;;;;;11.35;2.75;;;5.80;99.90;;;;;;2166840;66;20238;-74
2022/01/09 11:10:27;;;;;;;9.32;2.53;;;5.90;99.90;;;;;;2164477;65;20350;-75
2022/01/09 11:13:14;;;;;;;13.43;2.83;;;6.70;99.90;;;;;;2173429;65;20248;-74
2022/01/09 11:19:06;;;;;;;10.35;2.58;;;6.00;99.90;;;;;;2166642;65;20255;-75
2022/01/09 11:21:55;;;;;;;10.98;2.25;;;6.10;99.90;;;;;;2159256;66;20515;-74
2022/01/09 11:25:14;;;;;;;8.77;1.92;;;6.10;99.90;;;;;;2170810;65;20250;-74
2022/01/09 11:28:21;;;;;;;7.97;2.63;;;6.10;99.90;;;;;;2174829;65;20837;-75
2022/01/09 11:31:28;;;;;;;7.60;2.28;;;6.20;99.90;;;;;;2155247;65;20262;-75
2022/01/09 11:34:52;;;;;;;9.88;2.05;;;6.20;99.90;;;;;;2158902;66;20874;-73
2022/01/09 11:37:38;;;;;;;4.85;1.75;;;6.20;99.90;;;;;;2165904;65;20359;-75
2022/01/09 11:40:27;;;;;;;14.10;3.05;;;6.30;99.90;;;;;;2164681;65;20413;-74
2022/01/09 11:43:17;;;;;;;10.48;2.03;;;6.40;99.90;;;;;;2150082;66;20193;-76
2022/01/09 11:46:02;;;;;;;8.27;2.40;;;6.50;99.90;;;;;;2152624;66;20197;-76
2022/01/09 11:48:52;;;;;;;8.43;2.10;;;6.60;99.90;;;;;;2149889;66;20248;-73
2022/01/09 11:51:36;;;;;;;11.15;2.63;;;6.60;99.90;;;;;;2151637;66;20361;-74
2022/01/09 11:54:18;;;;;;;7.43;2.67;;;6.60;99.90;;;;;;2151629;66;20336;-75
2022/01/09 11:57:08;;;;;;;7.38;2.47;;;6.70;99.90;;;;;;2144686;66;20594;-76
2022/01/09 11:59:53;;;;;;;9.20;2.50;;;6.80;99.90;;;;;;2136651;66;20999;-77
2022/01/09 12:02:37;;;;;;;13.30;2.70;;;6.90;99.90;;;;;;2128819;67;20307;-75
2022/01/09 12:05:20;;;;;;;11.10;2.28;;;7.00;99.90;;;;;;2120201;67;20394;-73
2022/01/09 12:08:04;;;;;;;13.95;3.20;;;7.20;99.90;;;;;;2122077;66;20383;-75
2022/01/09 12:10:51;;;;;;;10.18;3.28;;;7.40;99.90;;;;;;2130462;67;20322;-74
2022/01/09 12:13:42;;;;;;;11.52;2.38;;;7.60;99.90;;;;;;2130265;66;20496;-75
2022/01/09 12:16:45;;;;;;;8.27;2.40;;;7.70;99.90;;;;;;2137570;66;20409;-74
2022/01/09 12:20:05;;;;;;;7.15;1.85;;;7.70;99.90;;;;;;2136724;66;20198;-74
2022/01/09 12:22:50;;;;;;;6.15;2.40;;;7.60;99.90;;;;;;2126767;67;20220;-74
2022/01/09 12:25:34;;;;;;;6.15;2.03;;;7.70;99.90;;;;;;2131820;66;20182;-74
2022/01/09 12:28:23;;;;;;;10.60;2.55;;;7.80;99.90;;;;;;2137114;66;20473;-75
2022/01/09 12:31:08;;;;;;;10.82;1.95;;;7.90;99.90;;;;;;2138729;66;20220;-74
2022/01/09 12:33:50;;;;;;;10.95;2.30;;;7.90;99.90;;;;;;2138863;66;20644;-75
2022/01/09 12:36:34;;;;;;;12.15;2.70;;;7.90;99.90;;;;;;2138162;66;20175;-73
2022/01/09 12:39:25;;;;;;;10.13;2.97;;;7.90;99.90;;;;;;2130078;67;20280;-74
2022/01/09 12:42:09;;;;;;;14.35;2.78;;;7.90;99.90;;;;;;2143462;66;20169;-74
2022/01/09 12:45:01;;;;;;;8.13;1.95;;;8.00;99.90;;;;;;2145201;66;20403;-76
2022/01/09 12:47:44;;;;;;;8.70;2.35;;;8.10;99.90;;;;;;2152020;65;20231;-75
2022/01/09 12:50:36;;;;;;;11.85;2.25;;;8.20;99.90;;;;;;2156391;66;20625;-75
2022/01/09 12:53:33;;;;;;;11.23;2.50;;;8.30;99.90;;;;;;2151834;66;20261;-74
2022/01/09 12:56:28;;;;;;;14.23;3.50;;;8.30;99.90;;;;;;2145667;66;20238;-78
2022/01/09 12:59:13;;;;;;;8.73;2.33;;;8.30;99.90;;;;;;2150977;66;20217;-75
2022/01/09 13:01:58;;;;;;;15.02;3.85;;;8.20;99.90;;;;;;2147684;66;20310;-75
2022/01/09 13:04:41;;;;;;;7.15;2.08;;;8.30;99.90;;;;;;2130034;67;20339;-75
2022/01/09 13:07:26;;;;;;;9.20;2.30;;;8.60;99.90;;;;;;2120974;67;20836;-78
2022/01/09 13:10:22;;;;;;;8.27;2.50;;;8.70;99.90;;;;;;2136616;67;20416;-74
2022/01/09 13:13:12;;;;;;;9.25;2.78;;;8.50;99.90;;;;;;2118407;67;20323;-77
2022/01/09 13:15:57;;;;;;;8.15;2.15;;;8.20;99.90;;;;;;2117083;67;20242;-75
2022/01/09 13:19:00;;;;;;;11.38;2.85;;;7.90;99.90;;;;;;2131095;66;20484;-75
2022/01/09 13:21:45;;;;;;;4.75;2.25;;;8.20;99.90;;;;;;2127697;67;20259;-76
2022/01/09 13:24:35;;;;;;;8.02;2.30;;;7.60;99.90;;;;;;2124773;67;20695;-76
2022/01/09 13:27:21;;;;;;;12.73;2.25;;;7.60;99.90;;;;;;2133963;66;20178;-75
2022/01/09 13:30:04;;;;;;;;;;;7.60;99.90;;;;;;2148227;66;20339;-76
2022/01/09 13:32:47;;;;;;;7.65;1.80;;;7.80;99.90;;;;;;2160705;65;20184;-75
2022/01/09 13:35:28;;;;;;;12.02;1.90;;;8.20;99.90;;;;;;2162793;65;20188;-76
2022/01/09 13:38:10;;;;;;;10.80;2.45;;;8.40;99.90;;;;;;2162853;65;20326;-75
2022/01/09 13:40:57;;;;;;;8.82;2.08;;;8.40;99.90;;;;;;2155070;66;20867;-75
2022/01/09 13:43:41;;;;;;;6.53;2.13;;;8.50;99.90;;;;;;2153100;66;20262;-75
2022/01/09 13:46:32;;;;;;;7.22;2.10;;;8.60;99.90;;;;;;2135766;66;20316;-74
2022/01/09 13:49:17;;;;;;;18.00;2.25;;;8.60;99.90;;;;;;2138835;66;21228;-75
2022/01/09 13:52:10;;;;;;;8.02;2.25;;;8.60;99.90;;;;;;2163765;65;20285;-76
2022/01/09 13:55:13;;;;;;;5.20;1.65;;;8.70;99.90;;;;;;2172485;65;20754;-74
2022/01/09 13:58:04;;;;;;;5.13;2.03;;;8.80;99.90;;;;;;2170541;65;20203;-75
2022/01/09 14:00:45;;;;;;;8.57;2.65;;;8.80;99.90;;;;;;2175939;65;20631;-74
2022/01/09 14:03:29;;;;;;;5.68;1.80;;;8.60;99.90;;;;;;2163630;65;20274;-74
2022/01/09 14:06:20;;;;;;;10.77;2.60;;;8.30;99.90;;;;;;2158890;66;20309;-72
2022/01/09 14:09:02;;;;;;;7.57;2.17;;;8.00;99.90;;;;;;2159564;65;20238;-75
2022/01/09 14:11:54;;;;;;;5.82;1.92;;;7.80;99.90;;;;;;2172193;65;20306;-74
2022/01/09 14:14:42;;;;;;;6.70;2.63;;;7.60;99.90;;;;;;2164705;66;20275;-75
2022/01/09 14:17:36;;;;;;;6.57;1.73;;;7.30;99.90;;;;;;2155916;66;20589;-74
2022/01/09 14:20:24;;;;;;;7.50;1.80;;;7.20;99.90;;;;;;2164331;66;20263;-74
2022/01/09 14:23:12;;;;;;;3.63;1.10;;;7.00;99.90;;;;;;2159342;66;20220;-73